Time;durP1;ratioP1;P1;durP2;ratioP2;P2;SDS_P1;SDS_P2;PMS_P1;PMS_P2;Temp;Humidity;BMP_temperature;BMP_pressure;BME280_temperature;BME280_humidity;BME280_pressure;Samples;Min_cycle;Max_cycle;Signal;HPM_P1;HPM_P2
2024/01/30 00:00:36;;;;;;;;;;;;;;;19.74;39.59;102428.72;2067454;28;6317;-62
2024/01/30 00:02:03;;;;;;;;;;;;;;;19.73;39.57;102438.72;2066066;28;2299;-62
2024/01/30 00:03:30;;;;;;;;;;;;;;;19.74;39.52;102440.97;2069811;28;2045;-62
2024/01/30 00:04:57;;;;;;;;;;;;;;;19.76;39.60;102431.75;2069561;28;1612;-62
2024/01/30 00:06:24;;;;;;;;;;;;;;;19.75;39.55;102424.50;2069962;28;2125;-62
2024/01/30 00:07:51;;;;;;;;;;;;;;;19.74;39.55;102429.47;2070225;28;1984;-62
2024/01/30 00:09:19;;;;;;;;;;;;;;;19.74;39.59;102431.59;2071437;28;2078;-62
2024/01/30 00:10:46;;;;;;;;;;;;;;;19.74;39.78;102429.47;2069273;28;2008;-62
2024/01/30 00:12:12;;;;;;;;;;;;;;;19.73;39.67;102433.72;2077118;28;2339;-62
2024/01/30 00:13:38;;;;;;;;;;;;;;;19.72;39.64;102419.94;2068825;28;2045;-62
2024/01/30 00:15:08;;;;;;;;;;;;;;;19.71;39.72;102421.31;2068104;28;1839;-62
2024/01/30 00:16:35;;;;;;;;;;;;;;;19.70;39.76;102417.69;2069325;28;1632;-62
2024/01/30 00:18:01;;;;;;;;;;;;;;;19.70;39.72;102408.28;2069544;28;1953;-62
2024/01/30 00:19:28;;;;;;;;;;;;;;;19.70;39.71;102411.16;2068768;28;2006;-62
2024/01/30 00:20:55;;;;;;;;;;;;;;;19.70;39.82;102416.91;2072699;28;1553;-62
2024/01/30 00:22:22;;;;;;;;;;;;;;;19.69;39.72;102415.41;2063418;28;2202;-62
2024/01/30 00:23:49;;;;;;;;;;;;;;;19.70;39.63;102422.66;2069340;28;1645;-62
2024/01/30 00:25:16;;;;;;;;;;;;;;;19.69;39.62;102418.28;2063036;28;5448;-62
2024/01/30 00:26:43;;;;;;;;;;;;;;;19.67;39.79;102419.59;2067545;28;2328;-62
2024/01/30 00:28:09;;;;;;;;;;;;;;;19.67;39.85;102413.09;2072230;28;1637;-63
2024/01/30 00:29:36;;;;;;;;;;;;;;;19.67;39.80;102416.72;2066559;28;2127;-62
2024/01/30 00:31:04;;;;;;;;;;;;;;;19.67;39.82;102419.59;2067439;28;6191;-62
2024/01/30 00:32:30;;;;;;;;;;;;;;;19.66;39.72;102412.34;2069369;28;2073;-62
2024/01/30 00:33:56;;;;;;;;;;;;;;;19.68;39.68;102414.63;2069477;28;1666;-62
2024/01/30 00:35:23;;;;;;;;;;;;;;;19.66;39.80;102411.59;2071017;28;1739;-62
2024/01/30 00:36:50;;;;;;;;;;;;;;;19.69;39.88;102410.41;2073267;28;1672;-62
2024/01/30 00:38:17;;;;;;;;;;;;;;;19.70;39.80;102411.16;2068316;28;2192;-62
2024/01/30 00:39:44;;;;;;;;;;;;;;;19.70;39.61;102411.94;2067420;28;2068;-63
2024/01/30 00:41:11;;;;;;;;;;;;;;;19.71;39.84;102409.81;2069072;28;1459;-70
2024/01/30 00:42:38;;;;;;;;;;;;;;;19.72;39.71;102402.69;2068974;28;2190;-62
2024/01/30 00:44:05;;;;;;;;;;;;;;;19.72;39.68;102399.81;2066688;28;2123;-70
2024/01/30 00:45:32;;;;;;;;;;;;;;;19.73;39.69;102404.22;2068527;28;2168;-70
2024/01/30 00:46:59;;;;;;;;;;;;;;;19.74;39.81;102400.72;2070209;28;1588;-70
2024/01/30 00:48:26;;;;;;;;;;;;;;;19.74;39.65;102399.97;2069932;28;2045;-70
2024/01/30 00:49:53;;;;;;;;;;;;;;;19.73;39.72;102399.22;2069535;28;2082;-69
2024/01/30 00:51:20;;;;;;;;;;;;;;;19.74;39.81;102394.22;2068882;28;2038;-69
2024/01/30 00:52:47;;;;;;;;;;;;;;;19.74;39.76;102397.09;2069741;28;2088;-70
2024/01/30 00:54:14;;;;;;;;;;;;;;;19.72;39.73;102403.44;2070454;28;1958;-70
2024/01/30 00:55:41;;;;;;;;;;;;;;;19.73;39.87;102407.84;2069804;28;2117;-70
2024/01/30 00:57:08;;;;;;;;;;;;;;;19.70;39.87;102399.66;2071026;28;1645;-70
2024/01/30 00:58:35;;;;;;;;;;;;;;;19.71;39.84;102401.19;2069690;28;2143;-70
2024/01/30 01:00:02;;;;;;;;;;;;;;;19.70;39.94;102403.31;2068244;28;2055;-70
2024/01/30 01:01:29;;;;;;;;;;;;;;;19.70;40.00;102406.19;2072521;28;6119;-70
2024/01/30 01:02:56;;;;;;;;;;;;;;;19.69;39.85;102403.91;2068060;28;1577;-70
2024/01/30 01:04:23;;;;;;;;;;;;;;;19.69;39.79;102403.91;2067978;28;2080;-70
2024/01/30 01:05:50;;;;;;;;;;;;;;;19.70;39.84;102405.41;2069746;28;1691;-70
2024/01/30 01:07:17;;;;;;;;;;;;;;;19.69;39.92;102413.28;2070341;28;2448;-70
2024/01/30 01:08:44;;;;;;;;;;;;;;;19.67;39.91;102419.59;2069462;28;2197;-70
2024/01/30 01:10:13;;;;;;;;;;;;;;;19.67;39.90;102419.59;2068094;28;2101;-70
2024/01/30 01:11:40;;;;;;;;;;;;;;;19.67;39.83;102416.72;2071248;28;1540;-70
2024/01/30 01:13:07;;;;;;;;;;;;;;;19.67;39.81;102415.97;2068090;28;2104;-70
2024/01/30 01:14:34;;;;;;;;;;;;;;;19.66;39.95;102412.34;2068736;28;2261;-70
2024/01/30 01:16:01;;;;;;;;;;;;;;;19.67;39.92;102413.09;2069305;28;2160;-70
2024/01/30 01:17:28;;;;;;;;;;;;;;;19.66;40.00;102405.84;2071507;28;1622;-70
2024/01/30 01:18:55;;;;;;;;;;;;;;;19.64;39.89;102409.34;2065735;28;2092;-70
2024/01/30 01:20:22;;;;;;;;;;;;;;;19.67;39.92;102410.22;2067301;28;2270;-70
2024/01/30 01:21:48;;;;;;;;;;;;;;;19.68;39.98;102414.63;2068311;28;1523;-70
2024/01/30 01:23:15;;;;;;;;;;;;;;;19.67;39.95;102413.84;2067339;28;1982;-70
2024/01/30 01:24:42;;;;;;;;;;;;;;;19.70;39.85;102416.91;2066797;28;2006;-70
2024/01/30 01:26:09;;;;;;;;;;;;;;;19.70;39.95;102406.19;2069250;28;2456;-70
2024/01/30 01:27:40;;;;;;;;;;;;;;;19.72;39.80;102411.31;2067632;28;1642;-70
2024/01/30 01:29:11;;;;;;;;;;;;;;;19.70;39.90;102414.03;2068943;28;1596;-70
2024/01/30 01:30:39;;;;;;;;;;;;;;;19.73;39.99;102409.97;2067810;28;6243;-70
2024/01/30 01:32:05;;;;;;;;;;;;;;;19.72;39.96;102414.19;2069901;28;1823;-70
2024/01/30 01:33:33;;;;;;;;;;;;;;;19.72;39.86;102414.19;2069379;28;1717;-70
2024/01/30 01:34:59;;;;;;;;;;;;;;;19.71;39.86;102409.81;2073215;28;1608;-70
2024/01/30 01:36:26;;;;;;;;;;;;;;;19.70;39.85;102417.69;2069531;28;2076;-70
2024/01/30 01:37:57;;;;;;;;;;;;;;;19.71;39.99;102418.44;2066189;28;2238;-70
2024/01/30 01:39:24;;;;;;;;;;;;;;;19.71;39.94;102418.44;2065692;28;2281;-70
2024/01/30 01:40:51;;;;;;;;;;;;;;;19.69;39.96;102409.66;2068073;28;1637;-70
2024/01/30 01:42:17;;;;;;;;;;;;;;;19.66;40.07;102400.88;2071823;28;2249;-70
2024/01/30 01:43:45;;;;;;;;;;;;;;;19.68;39.90;102403.13;2068618;28;1865;-70
2024/01/30 01:45:12;;;;;;;;;;;;;;;19.67;39.86;102410.97;2065225;28;2228;-69
2024/01/30 01:46:38;;;;;;;;;;;;;;;19.67;39.90;102402.38;2070776;28;2333;-70
2024/01/30 01:48:06;;;;;;;;;;;;;;;19.66;40.02;102400.88;2071729;28;1698;-70
2024/01/30 01:49:33;;;;;;;;;;;;;;;19.66;39.88;102400.88;2064107;28;2276;-70
2024/01/30 01:51:00;;;;;;;;;;;;;;;19.65;40.07;102410.84;2070216;28;2029;-70
2024/01/30 01:52:27;;;;;;;;;;;;;;;19.66;39.95;102400.88;2069890;28;2383;-70
2024/01/30 01:53:55;;;;;;;;;;;;;;;19.66;39.91;102403.75;2070324;28;1740;-70
2024/01/30 01:55:24;;;;;;;;;;;;;;;19.66;40.01;102400.88;2071097;28;1598;-70
2024/01/30 01:56:52;;;;;;;;;;;;;;;19.65;40.00;102399.38;2069268;28;1613;-70
2024/01/30 01:58:20;;;;;;;;;;;;;;;19.66;39.98;102403.75;2068340;28;2478;-70
2024/01/30 01:59:46;;;;;;;;;;;;;;;19.66;39.99;102398.00;2066950;28;2136;-70
2024/01/30 02:01:13;;;;;;;;;;;;;;;19.67;40.03;102399.50;2068924;28;6121;-70
2024/01/30 02:02:40;;;;;;;;;;;;;;;19.69;39.94;102406.78;2069308;28;2305;-69
2024/01/30 02:04:07;;;;;;;;;;;;;;;19.69;40.10;102406.78;2067879;28;2180;-70
2024/01/30 02:05:34;;;;;;;;;;;;;;;19.69;39.92;102404.66;2067642;28;1761;-70
2024/01/30 02:07:01;;;;;;;;;;;;;;;19.71;40.03;102409.81;2068553;28;2009;-70
2024/01/30 02:08:28;;;;;;;;;;;;;;;19.73;39.91;102409.97;2068953;28;2116;-70
2024/01/30 02:09:55;;;;;;;;;;;;;;;19.72;40.03;102409.19;2069373;28;1665;-70
2024/01/30 02:11:22;;;;;;;;;;;;;;;19.72;40.00;102411.31;2068755;28;2089;-70
2024/01/30 02:12:49;;;;;;;;;;;;;;;19.71;40.08;102412.69;2069183;28;2334;-70
2024/01/30 02:14:16;;;;;;;;;;;;;;;19.72;39.96;102417.06;2068506;28;2078;-70
2024/01/30 02:15:43;;;;;;;;;;;;;;;19.70;40.01;102411.94;2068087;28;2079;-70
2024/01/30 02:17:10;;;;;;;;;;;;;;;19.69;40.15;102410.41;2067548;28;1616;-69
2024/01/30 02:18:41;;;;;;;;;;;;;;;19.69;40.00;102410.41;2070194;28;1775;-70
2024/01/30 02:20:09;;;;;;;;;;;;;;;19.70;40.00;102408.28;2067267;28;1677;-70
2024/01/30 02:21:36;;;;;;;;;;;;;;;19.69;40.07;102409.66;2071695;28;1583;-70
2024/01/30 02:23:03;;;;;;;;;;;;;;;19.70;39.90;102405.41;2066807;28;2150;-70
2024/01/30 02:24:30;;;;;;;;;;;;;;;19.66;40.06;102406.59;2068863;28;2093;-70
2024/01/30 02:25:56;;;;;;;;;;;;;;;19.67;40.02;102408.09;2068704;28;1672;-70
2024/01/30 02:27:23;;;;;;;;;;;;;;;19.66;40.01;102412.34;2066569;28;1570;-71
2024/01/30 02:28:50;;;;;;;;;;;;;;;19.66;40.00;102409.47;2067633;28;2475;-70
2024/01/30 02:30:17;;;;;;;;;;;;;;;19.66;40.13;102408.72;2064648;28;6397;-70
2024/01/30 02:31:45;;;;;;;;;;;;;;;19.66;40.05;102412.34;2067735;28;1910;-70
2024/01/30 02:33:12;;;;;;;;;;;;;;;19.64;40.02;102415.06;2067305;28;2290;-70
2024/01/30 02:34:39;;;;;;;;;;;;;;;19.65;40.03;102410.84;2068665;28;2378;-69
2024/01/30 02:36:06;;;;;;;;;;;;;;;19.66;40.05;102415.22;2070312;28;2397;-70
2024/01/30 02:37:33;;;;;;;;;;;;;;;19.66;40.03;102411.59;2068762;28;2091;-70
2024/01/30 02:39:00;;;;;;;;;;;;;;;19.65;40.00;102410.84;2067133;28;2110;-70
2024/01/30 02:40:27;;;;;;;;;;;;;;;19.67;40.03;102413.09;2066286;28;2203;-70
2024/01/30 02:41:54;;;;;;;;;;;;;;;19.66;40.02;102406.59;2066475;28;2301;-70
2024/01/30 02:43:21;;;;;;;;;;;;;;;19.65;40.21;102405.09;2068693;28;2233;-70
2024/01/30 02:44:48;;;;;;;;;;;;;;;19.66;40.16;102394.38;2068940;28;1655;-70
2024/01/30 02:46:15;;;;;;;;;;;;;;;19.67;40.05;102402.38;2069065;28;2333;-69
2024/01/30 02:47:42;;;;;;;;;;;;;;;19.69;40.06;102401.78;2068477;28;1870;-70
2024/01/30 02:49:09;;;;;;;;;;;;;;;19.71;40.05;102401.19;2070616;28;2038;-70
2024/01/30 02:50:36;;;;;;;;;;;;;;;19.69;40.16;102398.91;2069235;28;1540;-70
2024/01/30 02:52:02;;;;;;;;;;;;;;;19.69;40.04;102393.16;2067398;28;2328;-70
2024/01/30 02:53:29;;;;;;;;;;;;;;;19.69;40.17;102390.28;2067933;28;2284;-70
2024/01/30 02:54:55;;;;;;;;;;;;;;;19.69;40.02;102398.91;2069587;28;1567;-70
2024/01/30 02:56:22;;;;;;;;;;;;;;;19.69;40.04;102392.41;2067774;28;2101;-70
2024/01/30 02:57:49;;;;;;;;;;;;;;;19.69;40.04;102401.78;2068724;28;1689;-70
2024/01/30 02:59:16;;;;;;;;;;;;;;;19.67;39.95;102390.88;2069168;28;1834;-70
2024/01/30 03:00:43;;;;;;;;;;;;;;;19.67;40.16;102395.88;2067483;28;6454;-70
2024/01/30 03:02:10;;;;;;;;;;;;;;;19.67;40.05;102390.88;2067413;28;2273;-70
2024/01/30 03:03:37;;;;;;;;;;;;;;;19.66;40.03;102389.38;2066640;28;2088;-70
2024/01/30 03:05:05;;;;;;;;;;;;;;;19.67;39.99;102390.13;2069376;28;1622;-70
2024/01/30 03:06:32;;;;;;;;;;;;;;;19.65;40.08;102387.09;2070308;28;2049;-70
2024/01/30 03:07:59;;;;;;;;;;;;;;;19.65;40.00;102387.88;2068108;28;2327;-70
2024/01/30 03:09:26;;;;;;;;;;;;;;;19.65;39.99;102387.88;2070804;28;1582;-70
2024/01/30 03:10:53;;;;;;;;;;;;;;;19.65;40.08;102389.97;2068370;28;1989;-70
2024/01/30 03:12:20;;;;;;;;;;;;;;;19.63;40.14;102381.97;2066821;28;2105;-70
2024/01/30 03:13:47;;;;;;;;;;;;;;;19.63;40.04;102384.84;2068365;28;2195;-70
2024/01/30 03:15:14;;;;;;;;;;;;;;;19.63;40.10;102384.06;2067112;28;2257;-70
2024/01/30 03:16:41;;;;;;;;;;;;;;;19.63;40.02;102384.84;2069761;28;1702;-70
2024/01/30 03:18:08;;;;;;;;;;;;;;;19.63;40.08;102379.09;2071353;28;1649;-70
2024/01/30 03:19:35;;;;;;;;;;;;;;;19.64;40.05;102382.72;2071788;28;1575;-70
2024/01/30 03:21:02;;;;;;;;;;;;;;;19.65;40.02;102381.34;2068551;28;1676;-70
2024/01/30 03:22:28;;;;;;;;;;;;;;;19.65;40.12;102381.34;2064799;28;1984;-70
2024/01/30 03:23:55;;;;;;;;;;;;;;;19.65;40.07;102375.59;2072832;28;1968;-70
2024/01/30 03:25:22;;;;;;;;;;;;;;;19.65;40.10;102373.50;2071624;28;1723;-69
2024/01/30 03:26:49;;;;;;;;;;;;;;;19.66;40.13;102377.13;2069194;28;2133;-70
2024/01/30 03:28:16;;;;;;;;;;;;;;;19.65;40.08;102370.63;2076611;28;1682;-69
2024/01/30 03:29:43;;;;;;;;;;;;;;;19.67;40.13;102376.50;2071595;28;1632;-70
2024/01/30 03:31:09;;;;;;;;;;;;;;;19.69;40.11;102372.31;2065710;28;6365;-70
2024/01/30 03:32:36;;;;;;;;;;;;;;;19.69;40.09;102367.31;2069236;28;2083;-70
2024/01/30 03:34:03;;;;;;;;;;;;;;;19.69;39.94;102363.69;2071653;28;1753;-70
2024/01/30 03:35:30;;;;;;;;;;;;;;;19.67;40.04;102362.13;2067891;28;2384;-70
2024/01/30 03:36:56;;;;;;;;;;;;;;;19.67;40.07;102367.13;2068443;28;2100;-70
2024/01/30 03:38:24;;;;;;;;;;;;;;;19.67;40.11;102362.13;2070990;28;2284;-70
2024/01/30 03:39:51;;;;;;;;;;;;;;;19.67;40.02;102367.88;2071103;28;1581;-70
2024/01/30 03:41:18;;;;;;;;;;;;;;;19.70;40.09;102363.09;2071262;28;1988;-70
2024/01/30 03:42:44;;;;;;;;;;;;;;;19.70;40.09;102365.19;2069742;28;1768;-70
2024/01/30 03:44:11;;;;;;;;;;;;;;;19.70;40.10;102370.94;2069260;28;2168;-70
2024/01/30 03:45:38;;;;;;;;;;;;;;;19.71;39.96;102366.69;2065959;28;2408;-70
2024/01/30 03:47:05;;;;;;;;;;;;;;;19.70;40.18;102365.94;2070589;28;1628;-70
2024/01/30 03:48:31;;;;;;;;;;;;;;;19.71;40.19;102369.56;2069103;28;2048;-70
2024/01/30 03:49:58;;;;;;;;;;;;;;;19.73;40.12;102370.47;2067162;28;2090;-70
2024/01/30 03:51:25;;;;;;;;;;;;;;;19.74;40.05;102365.47;2070244;28;2058;-70
2024/01/30 03:52:52;;;;;;;;;;;;;;;19.76;40.07;102359.88;2067279;28;2237;-70
2024/01/30 03:54:19;;;;;;;;;;;;;;;19.77;40.10;102364.25;2071550;28;1710;-70
2024/01/30 03:55:46;;;;;;;;;;;;;;;19.77;40.01;102372.88;2066542;28;2115;-70
2024/01/30 03:57:13;;;;;;;;;;;;;;;19.78;40.04;102366.53;2070301;28;1742;-70
2024/01/30 03:58:40;;;;;;;;;;;;;;;19.78;40.07;102365.78;2071653;28;1576;-70
2024/01/30 04:00:08;;;;;;;;;;;;;;;19.78;40.23;102383.03;2068715;28;6885;-69
2024/01/30 04:01:35;;;;;;;;;;;;;;;19.78;40.13;102375.16;2070332;28;2040;-70
2024/01/30 04:03:01;;;;;;;;;;;;;;;19.79;40.18;102375.91;2067799;28;2157;-70
2024/01/30 04:04:28;;;;;;;;;;;;;;;19.80;40.10;102371.69;2065702;28;2158;-69
2024/01/30 04:05:55;;;;;;;;;;;;;;;19.79;40.04;102368.06;2067014;28;2213;-70
2024/01/30 04:07:22;;;;;;;;;;;;;;;19.82;40.09;102377.59;2070938;28;1679;-70
2024/01/30 04:08:50;;;;;;;;;;;;;;;19.83;40.07;102376.22;2065862;28;2038;-70
2024/01/30 04:10:17;;;;;;;;;;;;;;;19.83;40.14;102376.94;2072034;28;1578;-69
2024/01/30 04:11:44;;;;;;;;;;;;;;;19.85;40.10;102373.47;2071100;28;1942;-69
2024/01/30 04:13:10;;;;;;;;;;;;;;;19.82;40.12;102366.84;2069575;28;2099;-70
2024/01/30 04:14:39;;;;;;;;;;;;;;;19.83;40.22;102368.31;2069019;28;2194;-70
2024/01/30 04:16:05;;;;;;;;;;;;;;;19.82;40.16;102372.59;2069972;28;1641;-70
2024/01/30 04:17:32;;;;;;;;;;;;;;;19.85;40.20;102367.72;2064890;28;2054;-70
2024/01/30 04:18:59;;;;;;;;;;;;;;;19.84;40.21;102369.09;2069943;28;1656;-69
2024/01/30 04:20:26;;;;;;;;;;;;;;;19.86;40.10;102367.13;2070462;28;1629;-70
2024/01/30 04:21:53;;;;;;;;;;;;;;;19.84;40.14;102369.09;2066651;28;2354;-70
2024/01/30 04:23:20;;;;;;;;;;;;;;;19.86;40.11;102366.38;2070153;28;1974;-70
2024/01/30 04:24:47;;;;;;;;;;;;;;;19.84;40.19;102363.34;2070442;28;2136;-70
2024/01/30 04:26:14;;;;;;;;;;;;;;;19.85;40.13;102361.97;2069506;28;2092;-71
2024/01/30 04:27:41;;;;;;;;;;;;;;;19.84;40.23;102364.09;2071203;28;2153;-70
2024/01/30 04:29:08;;;;;;;;;;;;;;;19.84;40.17;102363.34;2072138;28;1625;-70
2024/01/30 04:30:35;;;;;;;;;;;;;;;19.84;40.28;102360.47;2066890;28;6375;-70
2024/01/30 04:32:02;;;;;;;;;;;;;;;19.84;40.27;102363.34;2069183;28;2046;-70
2024/01/30 04:33:28;;;;;;;;;;;;;;;19.84;40.20;102358.34;2071221;28;2351;-70
2024/01/30 04:34:55;;;;;;;;;;;;;;;19.81;40.19;102356.72;2071105;28;1649;-70
2024/01/30 04:36:22;;;;;;;;;;;;;;;19.83;40.15;102356.09;2070841;28;1869;-70
2024/01/30 04:37:49;;;;;;;;;;;;;;;19.83;40.22;102364.69;2068344;28;2229;-70
2024/01/30 04:39:16;;;;;;;;;;;;;;;19.83;40.29;102365.44;2069325;28;2038;-70
2024/01/30 04:40:43;;;;;;;;;;;;;;;19.82;40.24;102372.59;2072535;28;1585;-70
2024/01/30 04:42:10;;;;;;;;;;;;;;;19.82;40.32;102361.09;2068662;28;2106;-70
2024/01/30 04:43:37;;;;;;;;;;;;;;;19.82;40.27;102366.09;2068371;28;2095;-71
2024/01/30 04:45:03;;;;;;;;;;;;;;;19.85;40.18;102370.59;2067779;28;1717;-70
2024/01/30 04:46:30;;;;;;;;;;;;;;;19.84;40.22;102369.09;2068840;28;1699;-70
2024/01/30 04:47:57;;;;;;;;;;;;;;;19.86;40.17;102360.63;2066873;28;2111;-70
2024/01/30 04:49:24;;;;;;;;;;;;;;;19.85;40.33;102373.47;2068900;28;2061;-70
2024/01/30 04:50:51;;;;;;;;;;;;;;;19.87;40.28;102370.75;2069730;28;1739;-70
2024/01/30 04:52:17;;;;;;;;;;;;;;;19.86;40.28;102363.50;2066996;28;2403;-70
2024/01/30 04:53:44;;;;;;;;;;;;;;;19.88;40.18;102366.50;2070160;28;2102;-70
2024/01/30 04:55:11;;;;;;;;;;;;;;;19.88;40.17;102369.38;2069371;28;2075;-69
2024/01/30 04:56:39;;;;;;;;;;;;;;;19.87;40.20;102360.00;2066307;28;2182;-70
2024/01/30 04:58:06;;;;;;;;;;;;;;;19.89;40.23;102359.41;2068123;28;2065;-69
2024/01/30 04:59:32;;;;;;;;;;;;;;;19.88;40.23;102360.75;2070911;28;1581;-70
2024/01/30 05:00:59;;;;;;;;;;;;;;;19.91;40.28;102367.44;2065528;28;6337;-69
2024/01/30 05:02:26;;;;;;;;;;;;;;;19.90;40.17;102360.91;2068612;28;2120;-70
2024/01/30 05:03:53;;;;;;;;;;;;;;;19.88;40.32;102358.66;2065440;28;2204;-70
2024/01/30 05:05:21;;;;;;;;;;;;;;;19.88;40.33;102369.38;2069283;28;2308;-68
2024/01/30 05:06:48;;;;;;;;;;;;;;;19.88;40.26;102363.63;2069360;28;2009;-69
2024/01/30 05:08:15;;;;;;;;;;;;;;;19.90;40.24;102358.03;2069323;28;2115;-70
2024/01/30 05:09:42;;;;;;;;;;;;;;;19.90;40.19;102369.53;2069560;28;1613;-70
2024/01/30 05:11:10;;;;;;;;;;;;;;;19.91;40.18;102355.94;2069171;28;2056;-69
2024/01/30 05:12:38;;;;;;;;;;;;;;;19.92;40.12;102355.31;2071610;28;2250;-70
2024/01/30 05:14:05;;;;;;;;;;;;;;;19.92;40.26;102358.19;2068766;28;1641;-70
2024/01/30 05:15:31;;;;;;;;;;;;;;;19.90;40.33;102354.41;2067975;28;2312;-70
2024/01/30 05:16:58;;;;;;;;;;;;;;;19.88;40.32;102346.38;2069043;28;2146;-69
2024/01/30 05:18:25;;;;;;;;;;;;;;;19.63;40.32;102349.56;2066778;28;2285;-74
2024/01/30 05:19:52;;;;;;;;;;;;;;;19.72;40.37;102356.72;2068836;28;1811;-69
2024/01/30 05:21:18;;;;;;;;;;;;;;;19.80;40.00;102358.06;2069818;28;2099;-68
2024/01/30 05:22:45;;;;;;;;;;;;;;;19.80;40.18;102357.31;2069592;28;1660;-68
2024/01/30 05:24:12;;;;;;;;;;;;;;;19.80;40.28;102352.31;2069656;28;1600;-67
2024/01/30 05:25:38;;;;;;;;;;;;;;;19.82;40.23;102360.34;2068201;28;1690;-68
2024/01/30 05:27:05;;;;;;;;;;;;;;;19.84;40.09;102355.47;2069189;28;1648;-68
2024/01/30 05:28:32;;;;;;;;;;;;;;;19.86;40.23;102354.88;2064585;28;2163;-69
2024/01/30 05:29:59;;;;;;;;;;;;;;;19.86;40.27;102357.75;2069859;28;2017;-68
2024/01/30 05:31:27;;;;;;;;;;;;;;;19.88;40.05;102357.88;2068905;28;6276;-68
2024/01/30 05:32:54;;;;;;;;;;;;;;;19.90;39.95;102346.53;2069689;28;1982;-68
2024/01/30 05:34:21;;;;;;;;;;;;;;;19.89;40.00;102359.41;2067784;28;2114;-67
2024/01/30 05:35:48;;;;;;;;;;;;;;;19.89;40.28;102359.41;2068796;28;1475;-68
2024/01/30 05:37:16;;;;;;;;;;;;;;;19.90;40.17;102360.91;2070295;28;1770;-68
2024/01/30 05:38:43;;;;;;;;;;;;;;;19.91;40.03;102350.94;2069831;28;1800;-69
2024/01/30 05:40:10;;;;;;;;;;;;;;;19.91;40.10;102353.81;2069083;28;2126;-68
2024/01/30 05:41:36;;;;;;;;;;;;;;;19.91;40.10;102356.69;2067733;28;2013;-68
2024/01/30 05:43:03;;;;;;;;;;;;;;;19.93;40.12;102348.19;2068362;28;2142;-68
2024/01/30 05:44:31;;;;;;;;;;;;;;;19.92;40.20;102358.19;2066218;28;1684;-68
2024/01/30 05:45:57;;;;;;;;;;;;;;;19.94;40.16;102355.44;2070293;28;1509;-68
2024/01/30 05:47:24;;;;;;;;;;;;;;;19.94;40.04;102346.81;2067014;28;1725;-68
2024/01/30 05:48:51;;;;;;;;;;;;;;;19.94;40.11;102346.06;2067863;28;1720;-68
2024/01/30 05:50:18;;;;;;;;;;;;;;;19.94;40.12;102346.81;2070785;28;1649;-68
2024/01/30 05:51:45;;;;;;;;;;;;;;;19.95;40.10;102347.56;2067180;28;2001;-68
2024/01/30 05:53:12;;;;;;;;;;;;;;;19.96;40.05;102346.97;2069750;28;1914;-68
2024/01/30 05:54:39;;;;;;;;;;;;;;;19.96;40.14;102346.97;2069501;28;1709;-66
2024/01/30 05:56:06;;;;;;;;;;;;;;;19.95;40.11;102345.47;2068732;28;1696;-68
2024/01/30 05:57:33;;;;;;;;;;;;;;;19.98;40.09;102355.00;2069197;28;1609;-68
2024/01/30 05:59:00;;;;;;;;;;;;;;;19.96;40.15;102346.97;2069355;28;1997;-68
2024/01/30 06:00:27;;;;;;;;;;;;;;;19.97;40.22;102347.72;2069224;28;6274;-69
2024/01/30 06:01:54;;;;;;;;;;;;;;;19.97;40.29;102342.72;2069226;28;1600;-68
2024/01/30 06:03:21;;;;;;;;;;;;;;;19.97;40.19;102347.72;2067984;28;2055;-67
2024/01/30 06:04:48;;;;;;;;;;;;;;;19.97;40.21;102347.72;2068443;28;1674;-68
2024/01/30 06:06:14;;;;;;;;;;;;;;;19.95;40.36;102348.34;2077673;28;1659;-68
2024/01/30 06:07:41;;;;;;;;;;;;;;;19.95;40.14;102339.72;2070057;28;2001;-69
2024/01/30 06:09:09;;;;;;;;;;;;;;;19.96;40.42;102340.47;2069493;28;1638;-68
2024/01/30 06:10:36;;;;;;;;;;;;;;;19.95;40.33;102345.47;2070773;28;1669;-68
2024/01/30 06:12:04;;;;;;;;;;;;;;;19.95;40.22;102342.59;2067501;28;2033;-68
2024/01/30 06:13:31;;;;;;;;;;;;;;;19.94;40.28;102332.44;2066290;28;2135;-68
2024/01/30 06:14:58;;;;;;;;;;;;;;;19.93;40.23;102330.94;2069521;28;1660;-68
2024/01/30 06:16:29;;;;;;;;;;;;;;;19.94;40.25;102338.19;2067910;28;1704;-68
2024/01/30 06:17:56;;;;;;;;;;;;;;;19.96;40.24;102341.22;2069137;28;1868;-68
2024/01/30 06:19:23;;;;;;;;;;;;;;;19.97;40.17;102336.97;2071398;28;1630;-67
2024/01/30 06:20:50;;;;;;;;;;;;;;;19.95;40.34;102333.97;2069560;28;1627;-68
2024/01/30 06:22:17;;;;;;;;;;;;;;;19.96;40.24;102341.22;2065293;28;1682;-68
2024/01/30 06:23:43;;;;;;;;;;;;;;;19.96;40.27;102338.34;2070981;28;1671;-68
2024/01/30 06:25:12;;;;;;;;;;;;;;;19.96;40.24;102338.34;2068439;28;1641;-67
2024/01/30 06:26:39;;;;;;;;;;;;;;;19.96;40.27;102332.59;2068731;28;1945;-68
2024/01/30 06:28:06;;;;;;;;;;;;;;;19.99;40.28;102339.25;2067258;28;2023;-68
2024/01/30 06:29:33;;;;;;;;;;;;;;;19.98;40.29;102332.75;2069478;28;1620;-68
2024/01/30 06:31:01;;;;;;;;;;;;;;;19.97;40.31;102336.97;2068911;28;7230;-68
2024/01/30 06:32:28;;;;;;;;;;;;;;;19.97;40.27;102334.09;2071632;28;1566;-68
2024/01/30 06:33:55;;;;;;;;;;;;;;;19.99;40.28;102334.25;2067192;28;2134;-68
2024/01/30 06:35:22;;;;;;;;;;;;;;;19.96;40.34;102329.72;2071687;28;1590;-68
2024/01/30 06:36:49;;;;;;;;;;;;;;;20.00;40.17;102341.53;2067199;28;1593;-68
2024/01/30 06:38:15;;;;;;;;;;;;;;;20.00;40.20;102332.91;2066581;28;2148;-68
2024/01/30 06:39:42;;;;;;;;;;;;;;;20.02;40.14;102333.03;2068479;28;2152;-68
2024/01/30 06:41:09;;;;;;;;;;;;;;;20.04;40.13;102336.06;2070716;28;2052;-68
2024/01/30 06:42:36;;;;;;;;;;;;;;;20.03;40.11;102325.91;2068798;28;2036;-68
2024/01/30 06:44:08;;;;;;;;;;;;;;;20.02;40.16;102330.16;2066960;28;1555;-62
2024/01/30 06:45:35;;;;;;;;;;;;;;;20.02;40.15;102326.50;2069254;28;2261;-68
2024/01/30 06:47:02;;;;;;;;;;;;;;;20.04;40.28;102335.28;2067668;28;1585;-68
2024/01/30 06:48:29;;;;;;;;;;;;;;;20.02;40.20;102324.41;2068778;28;1711;-62
2024/01/30 06:49:56;;;;;;;;;;;;;;;20.02;40.32;102335.13;2069760;28;1652;-62
2024/01/30 06:51:23;;;;;;;;;;;;;;;20.03;40.25;102328.78;2069133;28;1677;-62
2024/01/30 06:52:50;;;;;;;;;;;;;;;20.03;40.29;102328.03;2067932;28;1688;-62
2024/01/30 06:54:17;;;;;;;;;;;;;;;20.02;40.19;102330.16;2067736;28;2012;-62
2024/01/30 06:55:44;;;;;;;;;;;;;;;20.00;40.32;102329.28;2067682;28;1612;-62
2024/01/30 06:57:12;;;;;;;;;;;;;;;19.99;40.38;102327.75;2070453;28;1548;-62
2024/01/30 06:58:39;;;;;;;;;;;;;;;19.99;40.30;102331.38;2067954;28;2047;-62
2024/01/30 07:00:06;;;;;;;;;;;;;;;19.99;40.20;102331.38;2068903;28;7536;-62
2024/01/30 07:01:33;;;;;;;;;;;;;;;19.99;40.25;102334.25;2069824;28;1529;-62
2024/01/30 07:02:59;;;;;;;;;;;;;;;19.99;40.19;102328.50;2061123;28;2120;-62
2024/01/30 07:04:27;;;;;;;;;;;;;;;19.99;40.24;102334.25;2066232;28;2402;-62
2024/01/30 07:05:53;;;;;;;;;;;;;;;20.00;40.27;102332.91;2070051;28;1852;-62
2024/01/30 07:07:20;;;;;;;;;;;;;;;20.00;40.35;102330.03;2070428;28;1565;-62
2024/01/30 07:08:46;;;;;;;;;;;;;;;20.01;40.20;102330.75;2068304;28;2108;-62
2024/01/30 07:10:13;;;;;;;;;;;;;;;20.02;40.26;102327.28;2067971;28;1578;-63
2024/01/30 07:11:40;;;;;;;;;;;;;;;20.01;40.16;102331.50;2068684;28;1752;-62
2024/01/30 07:13:09;;;;;;;;;;;;;;;20.01;40.16;102331.50;2064415;28;2028;-62
2024/01/30 07:14:36;;;;;;;;;;;;;;;20.02;40.23;102329.38;2069199;28;1660;-62
2024/01/30 07:16:03;;;;;;;;;;;;;;;20.04;40.29;102326.66;2071647;28;1682;-62
2024/01/30 07:17:30;;;;;;;;;;;;;;;20.04;40.29;102327.44;2067356;28;1738;-62
2024/01/30 07:18:57;;;;;;;;;;;;;;;20.05;40.19;102325.31;2066447;28;2095;-62
2024/01/30 07:20:24;;;;;;;;;;;;;;;20.02;40.39;102318.66;2067018;28;2206;-62
2024/01/30 07:21:50;;;;;;;;;;;;;;;20.04;40.35;102324.56;2069540;28;2044;-62
2024/01/30 07:23:18;;;;;;;;;;;;;;;20.04;40.17;102318.81;2069422;28;1581;-62
2024/01/30 07:24:47;;;;;;;;;;;;;;;20.04;40.21;102327.44;2069793;28;2147;-62
2024/01/30 07:26:14;;;;;;;;;;;;;;;20.03;40.38;102322.28;2069172;28;2114;-62
2024/01/30 07:27:41;;;;;;;;;;;;;;;20.06;40.28;102330.44;2068803;28;1679;-62
2024/01/30 07:29:08;;;;;;;;;;;;;;;20.07;40.23;102329.06;2068082;28;2118;-62
2024/01/30 07:30:35;;;;;;;;;;;;;;;20.08;40.03;102330.56;2068875;28;6389;-62
2024/01/30 07:32:02;;;;;;;;;;;;;;;20.06;40.33;102327.56;2067246;28;1676;-62
2024/01/30 07:33:29;;;;;;;;;;;;;;;20.07;40.17;102323.34;2066093;28;1977;-62